sensor_id;sensor_type;location;lat;lon;timestamp;pressure;altitude;pressure_sealevel;temperature;humidity
15477;BME280;7840;42.702;23.296;2022-10-31T00:01:30;95549.78;;;14.11;67.20
15477;BME280;7840;42.702;23.296;2022-10-31T00:03:57;95545.00;;;14.08;67.43
15477;BME280;7840;42.702;23.296;2022-10-31T00:06:25;95544.44;;;14.06;67.62
15477;BME280;7840;42.702;23.296;2022-10-31T00:08:58;95545.38;;;13.90;68.61
15477;BME280;7840;42.702;23.296;2022-10-31T00:11:26;95554.97;;;13.91;68.86
15477;BME280;7840;42.702;23.296;2022-10-31T00:13:54;95543.25;;;13.87;69.30
15477;BME280;7840;42.702;23.296;2022-10-31T00:16:23;95548.34;;;13.93;69.17
15477;BME280;7840;42.702;23.296;2022-10-31T00:18:52;95554.97;;;13.91;69.72
15477;BME280;7840;42.702;23.296;2022-10-31T00:21:21;95549.50;;;13.71;70.68
15477;BME280;7840;42.702;23.296;2022-10-31T00:23:49;95556.78;;;13.80;70.51
15477;BME280;7840;42.702;23.296;2022-10-31T00:26:18;95538.34;;;13.74;71.02
15477;BME280;7840;42.702;23.296;2022-10-31T00:28:46;95549.00;;;13.74;71.10
15477;BME280;7840;42.702;23.296;2022-10-31T00:31:13;95550.09;;;13.78;71.09
15477;BME280;7840;42.702;23.296;2022-10-31T00:33:43;95541.25;;;13.72;71.76
15477;BME280;7840;42.702;23.296;2022-10-31T00:36:14;95536.78;;;13.78;71.60
15477;BME280;7840;42.702;23.296;2022-10-31T00:38:42;95543.09;;;13.66;72.43
15477;BME280;7840;42.702;23.296;2022-10-31T00:41:10;95531.44;;;13.73;72.10
15477;BME280;7840;42.702;23.296;2022-10-31T00:43:39;95530.69;;;13.82;71.70
15477;BME280;7840;42.702;23.296;2022-10-31T00:46:07;95537.34;;;13.85;71.52
15477;BME280;7840;42.702;23.296;2022-10-31T00:48:34;95530.97;;;13.86;71.26
15477;BME280;7840;42.702;23.296;2022-10-31T00:51:04;95527.81;;;13.89;70.76
15477;BME280;7840;42.702;23.296;2022-10-31T00:53:32;95530.47;;;13.89;70.99
15477;BME280;7840;42.702;23.296;2022-10-31T00:56:00;95526.91;;;13.73;72.19
15477;BME280;7840;42.702;23.296;2022-10-31T00:58:28;95531.53;;;13.88;71.07
15477;BME280;7840;42.702;23.296;2022-10-31T01:00:57;95535.28;;;13.92;71.05
15477;BME280;7840;42.702;23.296;2022-10-31T01:03:26;95540.09;;;13.95;70.92
15477;BME280;7840;42.702;23.296;2022-10-31T01:05:58;95544.91;;;13.98;70.37
15477;BME280;7840;42.702;23.296;2022-10-31T01:08:26;95543.31;;;13.97;70.62
15477;BME280;7840;42.702;23.296;2022-10-31T01:11:12;95545.44;;;13.95;70.78
15477;BME280;7840;42.702;23.296;2022-10-31T01:13:41;95542.50;;;13.96;70.75
15477;BME280;7840;42.702;23.296;2022-10-31T01:16:12;95549.03;;;13.79;71.53
15477;BME280;7840;42.702;23.296;2022-10-31T01:18:40;95549.50;;;13.71;71.85
15477;BME280;7840;42.702;23.296;2022-10-31T01:21:10;95547.91;;;13.69;72.57
15477;BME280;7840;42.702;23.296;2022-10-31T01:23:38;95553.16;;;13.64;73.34
15477;BME280;7840;42.702;23.296;2022-10-31T01:26:08;95553.22;;;13.69;72.75
15477;BME280;7840;42.702;23.296;2022-10-31T01:28:37;95554.31;;;13.74;72.51
15477;BME280;7840;42.702;23.296;2022-10-31T01:31:08;95546.34;;;13.79;72.50
15477;BME280;7840;42.702;23.296;2022-10-31T01:33:38;95553.53;;;13.78;72.60
15477;BME280;7840;42.702;23.296;2022-10-31T01:36:14;95557.75;;;13.69;73.48
15477;BME280;7840;42.702;23.296;2022-10-31T01:38:57;95545.28;;;13.75;73.82
15477;BME280;7840;42.702;23.296;2022-10-31T01:41:31;95554.44;;;13.89;73.61
15477;BME280;7840;42.702;23.296;2022-10-31T01:44:02;95554.59;;;13.77;74.21
15477;BME280;7840;42.702;23.296;2022-10-31T01:46:32;95545.44;;;13.95;73.80
15477;BME280;7840;42.702;23.296;2022-10-31T01:49:08;95554.28;;;14.06;73.53
15477;BME280;7840;42.702;23.296;2022-10-31T01:51:40;95561.69;;;13.99;74.02
15477;BME280;7840;42.702;23.296;2022-10-31T01:54:12;95559.38;;;14.07;73.75
15477;BME280;7840;42.702;23.296;2022-10-31T01:56:49;95551.97;;;14.19;73.24
15477;BME280;7840;42.702;23.296;2022-10-31T01:59:20;95552.59;;;14.32;72.62
15477;BME280;7840;42.702;23.296;2022-10-31T02:01:51;95559.03;;;14.41;71.95
15477;BME280;7840;42.702;23.296;2022-10-31T02:04:24;95554.00;;;14.44;71.56
15477;BME280;7840;42.702;23.296;2022-10-31T02:06:55;95554.53;;;14.41;71.70
15477;BME280;7840;42.702;23.296;2022-10-31T02:09:24;95545.25;;;14.49;71.51
15477;BME280;7840;42.702;23.296;2022-10-31T02:11:54;95549.47;;;14.45;72.59
15477;BME280;7840;42.702;23.296;2022-10-31T02:14:23;95541.22;;;14.46;72.25
15477;BME280;7840;42.702;23.296;2022-10-31T02:17:04;95547.06;;;14.43;73.10
15477;BME280;7840;42.702;23.296;2022-10-31T02:19:44;95541.44;;;14.40;73.44
15477;BME280;7840;42.702;23.296;2022-10-31T02:22:19;95544.06;;;14.30;74.33
15477;BME280;7840;42.702;23.296;2022-10-31T02:25:02;95553.00;;;14.13;76.10
15477;BME280;7840;42.702;23.296;2022-10-31T02:28:01;95556.00;;;14.22;76.07
15477;BME280;7840;42.702;23.296;2022-10-31T02:30:40;95561.13;;;14.34;75.27
15477;BME280;7840;42.702;23.296;2022-10-31T02:33:22;95567.59;;;14.43;74.37
15477;BME280;7840;42.702;23.296;2022-10-31T02:35:56;95569.13;;;14.34;74.42
15477;BME280;7840;42.702;23.296;2022-10-31T02:38:38;95577.09;;;14.34;74.50
15477;BME280;7840;42.702;23.296;2022-10-31T02:41:11;95569.13;;;14.34;74.26
15477;BME280;7840;42.702;23.296;2022-10-31T02:43:44;95568.63;;;14.37;74.09
15477;BME280;7840;42.702;23.296;2022-10-31T02:46:22;95576.56;;;14.32;74.19
15477;BME280;7840;42.702;23.296;2022-10-31T02:48:56;95584.53;;;14.27;73.99
15477;BME280;7840;42.702;23.296;2022-10-31T02:51:27;95573.28;;;14.19;74.20
15477;BME280;7840;42.702;23.296;2022-10-31T02:53:55;95580.47;;;14.14;74.05
15477;BME280;7840;42.702;23.296;2022-10-31T02:56:25;95590.22;;;14.03;74.38
15477;BME280;7840;42.702;23.296;2022-10-31T02:58:58;95592.00;;;13.92;75.26
15477;BME280;7840;42.702;23.296;2022-10-31T03:01:49;95586.94;;;13.91;75.75
15477;BME280;7840;42.702;23.296;2022-10-31T03:05:01;95585.47;;;13.73;76.61
15477;BME280;7840;42.702;23.296;2022-10-31T03:07:40;95589.53;;;13.81;76.63
15477;BME280;7840;42.702;23.296;2022-10-31T03:10:16;95595.66;;;13.81;76.76
15477;BME280;7840;42.702;23.296;2022-10-31T03:12:50;95590.03;;;13.78;76.95
15477;BME280;7840;42.702;23.296;2022-10-31T03:15:28;95591.84;;;13.72;76.68
15477;BME280;7840;42.702;23.296;2022-10-31T03:18:00;95593.09;;;13.64;77.05
15477;BME280;7840;42.702;23.296;2022-10-31T03:20:50;95590.09;;;13.29;79.63
15477;BME280;7840;42.702;23.296;2022-10-31T03:23:43;95588.38;;;12.74;83.86
15477;BME280;7840;42.702;23.296;2022-10-31T03:26:13;95588.56;;;12.67;86.34
15477;BME280;7840;42.702;23.296;2022-10-31T03:28:45;95597.22;;;12.79;86.26
15477;BME280;7840;42.702;23.296;2022-10-31T03:31:17;95600.38;;;12.98;84.96
15477;BME280;7840;42.702;23.296;2022-10-31T03:33:46;95603.59;;;13.00;84.82
15477;BME280;7840;42.702;23.296;2022-10-31T03:36:18;95601.94;;;12.55;86.61
15477;BME280;7840;42.702;23.296;2022-10-31T03:38:47;95601.63;;;12.30;89.45
15477;BME280;7840;42.702;23.296;2022-10-31T03:41:18;95601.53;;;12.25;91.85
15477;BME280;7840;42.702;23.296;2022-10-31T03:43:52;95601.41;;;12.15;92.35
15477;BME280;7840;42.702;23.296;2022-10-31T03:46:22;95608.69;;;12.08;93.92
15477;BME280;7840;42.702;23.296;2022-10-31T03:48:50;95610.63;;;12.12;95.04
15477;BME280;7840;42.702;23.296;2022-10-31T03:51:24;95614.91;;;12.30;93.84
15477;BME280;7840;42.702;23.296;2022-10-31T03:53:56;95614.16;;;12.35;93.23
15477;BME280;7840;42.702;23.296;2022-10-31T03:56:37;95614.09;;;12.13;94.68
15477;BME280;7840;42.702;23.296;2022-10-31T03:59:09;95623.75;;;11.85;97.61
15477;BME280;7840;42.702;23.296;2022-10-31T04:01:44;95623.75;;;11.85;98.88
15477;BME280;7840;42.702;23.296;2022-10-31T04:04:15;95625.28;;;11.81;100.00
15477;BME280;7840;42.702;23.296;2022-10-31T04:06:45;95622.38;;;11.99;99.63
15477;BME280;7840;42.702;23.296;2022-10-31T04:09:14;95621.97;;;12.08;98.69
15477;BME280;7840;42.702;23.296;2022-10-31T04:11:53;95623.13;;;12.12;97.64
15477;BME280;7840;42.702;23.296;2022-10-31T04:14:24;95626.31;;;12.14;97.54
15477;BME280;7840;42.702;23.296;2022-10-31T04:16:58;95632.13;;;12.11;98.07
15477;BME280;7840;42.702;23.296;2022-10-31T04:19:27;95626.19;;;12.03;98.66
15477;BME280;7840;42.702;23.296;2022-10-31T04:21:56;95626.81;;;12.11;98.58
15477;BME280;7840;42.702;23.296;2022-10-31T04:24:24;95631.31;;;12.10;98.50
15477;BME280;7840;42.702;23.296;2022-10-31T04:26:51;95628.44;;;12.12;98.51
15477;BME280;7840;42.702;23.296;2022-10-31T04:29:19;95634.88;;;12.16;98.06
15477;BME280;7840;42.702;23.296;2022-10-31T04:31:47;95635.34;;;12.13;98.12
15477;BME280;7840;42.702;23.296;2022-10-31T04:34:15;95626.81;;;11.94;99.53
15477;BME280;7840;42.702;23.296;2022-10-31T04:36:43;95635.34;;;12.13;99.05
15477;BME280;7840;42.702;23.296;2022-10-31T04:39:12;95630.03;;;12.13;98.62
15477;BME280;7840;42.702;23.296;2022-10-31T04:41:39;95633.59;;;12.01;99.56
15477;BME280;7840;42.702;23.296;2022-10-31T04:44:07;95633.56;;;11.85;100.00
15477;BME280;7840;42.702;23.296;2022-10-31T04:46:38;95632.22;;;11.70;100.00
15477;BME280;7840;42.702;23.296;2022-10-31T04:49:05;95639.94;;;11.72;100.00
15477;BME280;7840;42.702;23.296;2022-10-31T04:51:33;95638.84;;;11.68;100.00
15477;BME280;7840;42.702;23.296;2022-10-31T04:54:01;95640.44;;;11.69;100.00
15477;BME280;7840;42.702;23.296;2022-10-31T04:56:30;95644.31;;;11.78;100.00
15477;BME280;7840;42.702;23.296;2022-10-31T04:58:57;95650.78;;;11.82;100.00
15477;BME280;7840;42.702;23.296;2022-10-31T05:01:25;95649.50;;;11.73;100.00
15477;BME280;7840;42.702;23.296;2022-10-31T05:03:54;95653.44;;;11.82;100.00
15477;BME280;7840;42.702;23.296;2022-10-31T05:06:21;95651.03;;;11.81;100.00
15477;BME280;7840;42.702;23.296;2022-10-31T05:08:49;95655.28;;;11.82;100.00
15477;BME280;7840;42.702;23.296;2022-10-31T05:11:17;95657.63;;;11.66;100.00
15477;BME280;7840;42.702;23.296;2022-10-31T05:13:46;95654.91;;;11.61;100.00
15477;BME280;7840;42.702;23.296;2022-10-31T05:16:19;95655.13;;;11.60;100.00
15477;BME280;7840;42.702;23.296;2022-10-31T05:18:47;95661.16;;;11.55;100.00
15477;BME280;7840;42.702;23.296;2022-10-31T05:21:15;95665.66;;;11.55;100.00
15477;BME280;7840;42.702;23.296;2022-10-31T05:23:42;95667.72;;;11.52;100.00
15477;BME280;7840;42.702;23.296;2022-10-31T05:26:10;95662.41;;;11.52;100.00
15477;BME280;7840;42.702;23.296;2022-10-31T05:28:38;95661.06;;;11.50;100.00
15477;BME280;7840;42.702;23.296;2022-10-31T05:31:22;95672.88;;;11.59;100.00
15477;BME280;7840;42.702;23.296;2022-10-31T05:33:51;95673.63;;;11.83;100.00
15477;BME280;7840;42.702;23.296;2022-10-31T05:36:19;95677.03;;;11.95;100.00
15477;BME280;7840;42.702;23.296;2022-10-31T05:38:47;95683.13;;;12.13;100.00
15477;BME280;7840;42.702;23.296;2022-10-31T05:41:14;95685.38;;;12.21;100.00
15477;BME280;7840;42.702;23.296;2022-10-31T05:43:42;95683.78;;;12.20;100.00
15477;BME280;7840;42.702;23.296;2022-10-31T05:46:10;95686.13;;;11.71;100.00
15477;BME280;7840;42.702;23.296;2022-10-31T05:48:39;95683.19;;;11.56;100.00
15477;BME280;7840;42.702;23.296;2022-10-31T05:51:06;95678.34;;;11.52;100.00
15477;BME280;7840;42.702;23.296;2022-10-31T05:53:34;95684.31;;;11.60;100.00
15477;BME280;7840;42.702;23.296;2022-10-31T05:56:05;95690.31;;;11.67;100.00
15477;BME280;7840;42.702;23.296;2022-10-31T05:58:33;95683.56;;;11.76;100.00
15477;BME280;7840;42.702;23.296;2022-10-31T06:01:00;95684.25;;;11.83;100.00
15477;BME280;7840;42.702;23.296;2022-10-31T06:03:28;95693.59;;;12.02;100.00
15477;BME280;7840;42.702;23.296;2022-10-31T06:05:57;95694.72;;;12.40;100.00
15477;BME280;7840;42.702;23.296;2022-10-31T06:08:25;95699.72;;;12.53;100.00
15477;BME280;7840;42.702;23.296;2022-10-31T06:10:53;95699.47;;;12.72;98.51
15477;BME280;7840;42.702;23.296;2022-10-31T06:13:21;95710.44;;;12.58;96.70
15477;BME280;7840;42.702;23.296;2022-10-31T06:15:49;95706.75;;;12.43;96.98
15477;BME280;7840;42.702;23.296;2022-10-31T06:18:17;95709.56;;;12.36;97.96
15477;BME280;7840;42.702;23.296;2022-10-31T06:20:44;95720.66;;;12.33;98.41
15477;BME280;7840;42.702;23.296;2022-10-31T06:23:29;95724.53;;;12.42;97.79
15477;BME280;7840;42.702;23.296;2022-10-31T06:25:56;95722.47;;;12.83;96.24
15477;BME280;7840;42.702;23.296;2022-10-31T06:28:24;95728.16;;;13.08;93.49
15477;BME280;7840;42.702;23.296;2022-10-31T06:30:52;95728.78;;;13.32;91.82
15477;BME280;7840;42.702;23.296;2022-10-31T06:33:20;95730.81;;;13.47;89.97
15477;BME280;7840;42.702;23.296;2022-10-31T06:35:47;95738.66;;;13.59;88.58
15477;BME280;7840;42.702;23.296;2022-10-31T06:38:15;95736.19;;;13.74;88.65
15477;BME280;7840;42.702;23.296;2022-10-31T06:40:44;95735.78;;;13.87;86.67
15477;BME280;7840;42.702;23.296;2022-10-31T06:43:12;95733.03;;;13.55;88.37
15477;BME280;7840;42.702;23.296;2022-10-31T06:45:40;95735.19;;;13.58;89.07
15477;BME280;7840;42.702;23.296;2022-10-31T06:48:08;95738.19;;;13.89;87.11
15477;BME280;7840;42.702;23.296;2022-10-31T06:50:38;95738.41;;;14.09;84.94
15477;BME280;7840;42.702;23.296;2022-10-31T06:53:06;95738.06;;;14.33;82.92
15477;BME280;7840;42.702;23.296;2022-10-31T06:55:33;95732.91;;;14.48;82.44
15477;BME280;7840;42.702;23.296;2022-10-31T06:58:02;95739.72;;;14.66;80.32
15477;BME280;7840;42.702;23.296;2022-10-31T07:00:34;95737.41;;;14.80;79.69
15477;BME280;7840;42.702;23.296;2022-10-31T07:03:05;95743.63;;;14.95;78.14
15477;BME280;7840;42.702;23.296;2022-10-31T07:05:33;95742.94;;;15.10;77.02
15477;BME280;7840;42.702;23.296;2022-10-31T07:08:02;95747.78;;;15.18;76.45
15477;BME280;7840;42.702;23.296;2022-10-31T07:10:32;95738.53;;;15.31;75.69
15477;BME280;7840;42.702;23.296;2022-10-31T07:13:03;95740.63;;;15.29;75.13
15477;BME280;7840;42.702;23.296;2022-10-31T07:15:34;95745.50;;;15.42;74.14
15477;BME280;7840;42.702;23.296;2022-10-31T07:18:13;95742.63;;;15.54;73.63
15477;BME280;7840;42.702;23.296;2022-10-31T07:20:43;95738.69;;;15.67;72.93
15477;BME280;7840;42.702;23.296;2022-10-31T07:23:12;95731.81;;;15.86;72.67
15477;BME280;7840;42.702;23.296;2022-10-31T07:25:42;95733.19;;;16.04;71.21
15477;BME280;7840;42.702;23.296;2022-10-31T07:28:12;95716.91;;;16.21;70.77
15477;BME280;7840;42.702;23.296;2022-10-31T07:30:50;95716.13;;;16.35;70.16
15477;BME280;7840;42.702;23.296;2022-10-31T07:33:43;95721.97;;;16.02;70.95
15477;BME280;7840;42.702;23.296;2022-10-31T07:36:11;95722.88;;;15.55;73.94
15477;BME280;7840;42.702;23.296;2022-10-31T07:38:39;95723.63;;;15.45;75.58
15477;BME280;7840;42.702;23.296;2022-10-31T07:41:08;95719.72;;;15.63;75.04
15477;BME280;7840;42.702;23.296;2022-10-31T07:43:37;95720.84;;;15.72;75.14
15477;BME280;7840;42.702;23.296;2022-10-31T07:46:05;95719.38;;;15.44;76.30
15477;BME280;7840;42.702;23.296;2022-10-31T07:48:33;95715.44;;;15.62;77.04
15477;BME280;7840;42.702;23.296;2022-10-31T07:51:24;95706.44;;;15.89;75.33
15477;BME280;7840;42.702;23.296;2022-10-31T07:54:02;95714.97;;;15.91;74.17
15477;BME280;7840;42.702;23.296;2022-10-31T07:56:30;95716.56;;;15.81;75.04
15477;BME280;7840;42.702;23.296;2022-10-31T07:58:59;95710.69;;;15.74;74.73
15477;BME280;7840;42.702;23.296;2022-10-31T08:01:28;95712.31;;;15.80;75.49
15477;BME280;7840;42.702;23.296;2022-10-31T08:03:55;95715.56;;;16.18;73.79
15477;BME280;7840;42.702;23.296;2022-10-31T08:06:23;95718.78;;;16.20;73.25
15477;BME280;7840;42.702;23.296;2022-10-31T08:08:51;95715.06;;;16.36;72.40
15477;BME280;7840;42.702;23.296;2022-10-31T08:11:19;95723.31;;;16.60;71.61
15477;BME280;7840;42.702;23.296;2022-10-31T08:13:49;95710.25;;;16.69;71.06
15477;BME280;7840;42.702;23.296;2022-10-31T08:16:19;95710.25;;;16.79;69.88
15477;BME280;7840;42.702;23.296;2022-10-31T08:18:46;95720.41;;;17.03;69.42
15477;BME280;7840;42.702;23.296;2022-10-31T08:21:14;95724.34;;;17.15;68.77
15477;BME280;7840;42.702;23.296;2022-10-31T08:23:44;95715.03;;;16.92;69.67
15477;BME280;7840;42.702;23.296;2022-10-31T08:26:14;95715.47;;;17.35;68.32
15477;BME280;7840;42.702;23.296;2022-10-31T08:28:42;95711.09;;;17.55;67.62
15477;BME280;7840;42.702;23.296;2022-10-31T08:31:11;95715.44;;;17.45;67.71
15477;BME280;7840;42.702;23.296;2022-10-31T08:33:59;95712.19;;;17.59;67.70
15477;BME280;7840;42.702;23.296;2022-10-31T08:36:29;95708.66;;;17.63;67.04
15477;BME280;7840;42.702;23.296;2022-10-31T08:38:57;95701.88;;;17.86;66.22
15477;BME280;7840;42.702;23.296;2022-10-31T08:41:25;95709.38;;;17.84;66.67
15477;BME280;7840;42.702;23.296;2022-10-31T08:44:09;95713.44;;;17.82;66.54
15477;BME280;7840;42.702;23.296;2022-10-31T08:46:38;95704.66;;;17.71;66.81
15477;BME280;7840;42.702;23.296;2022-10-31T08:49:07;95707.59;;;17.64;67.20
15477;BME280;7840;42.702;23.296;2022-10-31T08:51:49;95714.19;;;17.92;66.34
15477;BME280;7840;42.702;23.296;2022-10-31T08:54:16;95710.81;;;18.16;65.29
15477;BME280;7840;42.702;23.296;2022-10-31T08:56:46;95711.00;;;18.64;63.75
15477;BME280;7840;42.702;23.296;2022-10-31T08:59:14;95701.22;;;18.78;62.82
15477;BME280;7840;42.702;23.296;2022-10-31T09:01:41;95715.84;;;18.96;62.06
15477;BME280;7840;42.702;23.296;2022-10-31T09:04:10;95712.59;;;18.65;63.10
15477;BME280;7840;42.702;23.296;2022-10-31T09:06:38;95716.94;;;18.61;63.44
15477;BME280;7840;42.702;23.296;2022-10-31T09:09:05;95713.56;;;18.79;63.06
15477;BME280;7840;42.702;23.296;2022-10-31T09:11:33;95712.06;;;18.68;63.63
15477;BME280;7840;42.702;23.296;2022-10-31T09:14:01;95707.84;;;18.56;63.60
15477;BME280;7840;42.702;23.296;2022-10-31T09:16:32;95706.97;;;18.95;62.63
15477;BME280;7840;42.702;23.296;2022-10-31T09:19:04;95702.97;;;19.22;62.07
15477;BME280;7840;42.702;23.296;2022-10-31T09:21:38;95697.59;;;19.22;61.76
15477;BME280;7840;42.702;23.296;2022-10-31T09:24:06;95690.66;;;19.16;61.66
15477;BME280;7840;42.702;23.296;2022-10-31T09:26:34;95692.25;;;19.17;61.90
15477;BME280;7840;42.702;23.296;2022-10-31T09:29:01;95692.34;;;19.54;60.64
15477;BME280;7840;42.702;23.296;2022-10-31T09:31:29;95686.91;;;20.02;59.42
15477;BME280;7840;42.702;23.296;2022-10-31T09:33:57;95695.69;;;19.89;59.13
15477;BME280;7840;42.702;23.296;2022-10-31T09:36:27;95686.41;;;20.00;59.37
15477;BME280;7840;42.702;23.296;2022-10-31T09:38:57;95688.06;;;20.34;57.74
15477;BME280;7840;42.702;23.296;2022-10-31T09:41:31;95687.56;;;20.64;56.90
15477;BME280;7840;42.702;23.296;2022-10-31T09:44:21;95687.34;;;20.47;56.77
15477;BME280;7840;42.702;23.296;2022-10-31T09:47:03;95683.84;;;20.28;57.46
15477;BME280;7840;42.702;23.296;2022-10-31T09:53:13;95680.19;;;20.56;56.46
15477;BME280;7840;42.702;23.296;2022-10-31T09:55:45;95687.16;;;20.57;55.48
15477;BME280;7840;42.702;23.296;2022-10-31T09:58:18;95681.34;;;20.83;55.66
15477;BME280;7840;42.702;23.296;2022-10-31T10:00:47;95675.25;;;21.37;53.50
15477;BME280;7840;42.702;23.296;2022-10-31T10:03:26;95678.69;;;21.79;52.65
15477;BME280;7840;42.702;23.296;2022-10-31T10:06:00;95675.31;;;22.46;50.75
15477;BME280;7840;42.702;23.296;2022-10-31T10:08:32;95662.44;;;22.65;49.45
15477;BME280;7840;42.702;23.296;2022-10-31T10:11:11;95661.81;;;22.68;49.52
15477;BME280;7840;42.702;23.296;2022-10-31T10:13:57;95661.00;;;22.67;49.18
15477;BME280;7840;42.702;23.296;2022-10-31T10:16:49;95651.63;;;23.27;47.92
15477;BME280;7840;42.702;23.296;2022-10-31T10:22:56;95654.69;;;22.95;46.98
15477;BME280;7840;42.702;23.296;2022-10-31T10:25:33;95647.34;;;22.86;47.07
15477;BME280;7840;42.702;23.296;2022-10-31T10:28:14;95637.34;;;23.35;46.10
15477;BME280;7840;42.702;23.296;2022-10-31T10:30:47;95642.41;;;23.68;45.45
15477;BME280;7840;42.702;23.296;2022-10-31T10:33:20;95635.06;;;23.86;45.34
15477;BME280;7840;42.702;23.296;2022-10-31T10:35:52;95635.22;;;23.72;44.78
15477;BME280;7840;42.702;23.296;2022-10-31T10:38:23;95632.31;;;23.60;45.21
15477;BME280;7840;42.702;23.296;2022-10-31T10:40:55;95626.78;;;23.73;44.24
15477;BME280;7840;42.702;23.296;2022-10-31T10:43:58;95615.00;;;24.21;43.44
15477;BME280;7840;42.702;23.296;2022-10-31T10:46:34;95619.16;;;24.36;42.52
15477;BME280;7840;42.702;23.296;2022-10-31T10:49:59;95616.97;;;24.38;42.16
15477;BME280;7840;42.702;23.296;2022-10-31T10:52:46;95609.47;;;24.35;42.02
15477;BME280;7840;42.702;23.296;2022-10-31T10:55:25;95610.72;;;24.46;42.10
15477;BME280;7840;42.702;23.296;2022-10-31T10:57:56;95609.97;;;24.93;41.29
15477;BME280;7840;42.702;23.296;2022-10-31T11:00:29;95601.44;;;25.20;40.46
15477;BME280;7840;42.702;23.296;2022-10-31T11:02:57;95610.66;;;24.72;41.32
15477;BME280;7840;42.702;23.296;2022-10-31T11:05:33;95601.78;;;24.54;40.74
15477;BME280;7840;42.702;23.296;2022-10-31T11:08:07;95608.19;;;24.24;41.88
15477;BME280;7840;42.702;23.296;2022-10-31T11:10:38;95598.31;;;24.45;40.91
15477;BME280;7840;42.702;23.296;2022-10-31T11:13:21;95597.63;;;25.13;40.25
15477;BME280;7840;42.702;23.296;2022-10-31T11:22:27;95596.06;;;24.47;40.55
15477;BME280;7840;42.702;23.296;2022-10-31T11:24:54;95592.88;;;25.01;39.91
15477;BME280;7840;42.702;23.296;2022-10-31T11:27:26;95582.34;;;25.88;38.47
15477;BME280;7840;42.702;23.296;2022-10-31T11:30:05;95582.56;;;26.37;37.33
15477;BME280;7840;42.702;23.296;2022-10-31T11:33:02;95575.75;;;26.64;36.92
15477;BME280;7840;42.702;23.296;2022-10-31T11:35:40;95570.63;;;26.62;36.78
15477;BME280;7840;42.702;23.296;2022-10-31T11:38:23;95573.28;;;26.38;36.82
15477;BME280;7840;42.702;23.296;2022-10-31T11:40:59;95570.25;;;26.18;37.49
15477;BME280;7840;42.702;23.296;2022-10-31T11:43:48;95571.78;;;25.65;37.77
15477;BME280;7840;42.702;23.296;2022-10-31T11:46:24;95564.34;;;25.83;37.68
15477;BME280;7840;42.702;23.296;2022-10-31T11:49:15;95559.91;;;26.33;37.44
15477;BME280;7840;42.702;23.296;2022-10-31T11:51:49;95557.94;;;26.21;37.37
15477;BME280;7840;42.702;23.296;2022-10-31T11:54:24;95556.63;;;25.64;37.71
15477;BME280;7840;42.702;23.296;2022-10-31T11:56:53;95555.19;;;25.46;38.50
15477;BME280;7840;42.702;23.296;2022-10-31T11:59:26;95554.06;;;25.18;38.87
15477;BME280;7840;42.702;23.296;2022-10-31T12:02:18;95554.66;;;26.15;37.23
15477;BME280;7840;42.702;23.296;2022-10-31T12:04:49;95545.31;;;26.83;36.42
15477;BME280;7840;42.702;23.296;2022-10-31T12:07:28;95544.44;;;27.27;35.35
15477;BME280;7840;42.702;23.296;2022-10-31T12:10:11;95550.97;;;27.51;35.05
15477;BME280;7840;42.702;23.296;2022-10-31T12:12:56;95544.44;;;27.15;35.49
15477;BME280;7840;42.702;23.296;2022-10-31T12:15:31;95540.69;;;27.32;35.14
15477;BME280;7840;42.702;23.296;2022-10-31T12:18:36;95545.88;;;27.00;35.83
15477;BME280;7840;42.702;23.296;2022-10-31T12:21:24;95542.16;;;26.35;37.07
15477;BME280;7840;42.702;23.296;2022-10-31T12:24:07;95541.91;;;25.74;38.31
15477;BME280;7840;42.702;23.296;2022-10-31T12:26:42;95540.34;;;25.64;38.20
15477;BME280;7840;42.702;23.296;2022-10-31T12:29:39;95542.59;;;26.04;38.00
15477;BME280;7840;42.702;23.296;2022-10-31T12:32:23;95544.72;;;25.99;37.51
15477;BME280;7840;42.702;23.296;2022-10-31T12:35:08;95542.69;;;26.29;37.06
15477;BME280;7840;42.702;23.296;2022-10-31T12:38:26;95542.78;;;26.53;36.48
15477;BME280;7840;42.702;23.296;2022-10-31T12:41:27;95541.09;;;26.28;36.96
15477;BME280;7840;42.702;23.296;2022-10-31T12:44:06;95533.34;;;26.05;37.02
15477;BME280;7840;42.702;23.296;2022-10-31T12:46:57;95531.00;;;26.16;37.12
15477;BME280;7840;42.702;23.296;2022-10-31T12:49:39;95542.59;;;26.04;37.55
15477;BME280;7840;42.702;23.296;2022-10-31T12:52:29;95530.19;;;27.18;35.90
15477;BME280;7840;42.702;23.296;2022-10-31T12:55:14;95538.53;;;27.38;35.44
15477;BME280;7840;42.702;23.296;2022-10-31T12:57:54;95540.56;;;26.80;36.69
15477;BME280;7840;42.702;23.296;2022-10-31T13:00:25;95540.09;;;26.65;36.41
15477;BME280;7840;42.702;23.296;2022-10-31T13:03:26;95528.50;;;27.66;34.83
15477;BME280;7840;42.702;23.296;2022-10-31T13:06:05;95541.22;;;27.50;35.12
15477;BME280;7840;42.702;23.296;2022-10-31T13:08:39;95526.06;;;27.89;34.92
15477;BME280;7840;42.702;23.296;2022-10-31T13:11:12;95527.81;;;28.38;33.94
15477;BME280;7840;42.702;23.296;2022-10-31T13:13:49;95531.09;;;28.91;33.27
15477;BME280;7840;42.702;23.296;2022-10-31T13:16:21;95527.31;;;29.62;31.97
15477;BME280;7840;42.702;23.296;2022-10-31T13:18:56;95524.91;;;29.95;31.33
15477;BME280;7840;42.702;23.296;2022-10-31T13:21:30;95526.63;;;30.04;31.22
15477;BME280;7840;42.702;23.296;2022-10-31T13:24:14;95526.13;;;30.60;30.02
15477;BME280;7840;42.702;23.296;2022-10-31T13:26:46;95525.06;;;30.87;30.17
15477;BME280;7840;42.702;23.296;2022-10-31T13:29:20;95529.91;;;30.51;30.27
15477;BME280;7840;42.702;23.296;2022-10-31T13:31:52;95522.16;;;30.99;30.03
15477;BME280;7840;42.702;23.296;2022-10-31T13:34:34;95529.66;;;31.29;29.29
15477;BME280;7840;42.702;23.296;2022-10-31T13:37:10;95520.25;;;31.83;28.74
15477;BME280;7840;42.702;23.296;2022-10-31T13:39:55;95521.59;;;31.66;28.34
15477;BME280;7840;42.702;23.296;2022-10-31T13:42:41;95525.00;;;31.86;28.32
15477;BME280;7840;42.702;23.296;2022-10-31T13:45:15;95519.72;;;31.74;28.44
15477;BME280;7840;42.702;23.296;2022-10-31T13:48:17;95531.47;;;32.34;27.42